createdAt,value
2023-04-26T00:00:35.673Z,2.099999905
2023-04-26T00:01:36.647Z,2.5
2023-04-26T00:02:38.417Z,2.299999952
2023-04-26T00:03:40.274Z,2.299999952
2023-04-26T00:04:41.073Z,3
2023-04-26T00:05:42.672Z,2.400000095
2023-04-26T00:06:45.229Z,2.299999952
2023-04-26T00:07:47.200Z,2.200000048
2023-04-26T00:08:48.775Z,2.599999905
2023-04-26T00:09:50.144Z,2.400000095
2023-04-26T00:10:51.629Z,2.5
2023-04-26T00:11:53.173Z,2.200000048
2023-04-26T00:12:55.217Z,2.599999905
2023-04-26T00:13:56.683Z,2.299999952
2023-04-26T00:14:58.250Z,2.5
2023-04-26T00:15:59.183Z,2.900000095
2023-04-26T00:17:01.100Z,2.200000048
2023-04-26T00:18:33.140Z,2.099999905
2023-04-26T00:19:34.522Z,2.299999952
2023-04-26T00:20:36.249Z,2.700000048
2023-04-26T00:21:37.652Z,2.299999952
2023-04-26T00:22:39.256Z,2.400000095
2023-04-26T00:23:41.174Z,2.799999952
2023-04-26T00:24:42.557Z,2.200000048
2023-04-26T00:25:44.672Z,2.5
2023-04-26T00:26:46.223Z,2.200000048
2023-04-26T00:27:47.336Z,2.400000095
2023-04-26T00:28:50.446Z,2.299999952
2023-04-26T00:29:51.651Z,2.599999905
2023-04-26T00:30:53.152Z,2.200000048
2023-04-26T00:31:54.689Z,2.400000095
2023-04-26T00:32:55.690Z,2.099999905
2023-04-26T00:33:57.281Z,2.700000048
2023-04-26T00:34:59.463Z,2.599999905
2023-04-26T00:36:01.703Z,2.599999905
2023-04-26T00:37:33.700Z,2.5
2023-04-26T00:38:35.160Z,2
2023-04-26T00:39:36.691Z,3.099999905
2023-04-26T00:40:38.014Z,2.200000048
2023-04-26T00:41:39.919Z,2.5
2023-04-26T00:42:41.627Z,2.5
2023-04-26T00:43:43.159Z,2.299999952
2023-04-26T00:44:45.020Z,2.5
2023-04-26T00:45:46.586Z,2.400000095
2023-04-26T00:46:49.214Z,2.400000095
2023-04-26T00:47:50.730Z,2.5
2023-04-26T00:48:52.386Z,2.599999905
2023-04-26T00:49:53.004Z,2.599999905
2023-04-26T00:50:54.544Z,2.299999952
2023-04-26T00:51:56.109Z,2.400000095
2023-04-26T00:52:57.724Z,2.799999952
2023-04-26T00:53:59.676Z,2.299999952
2023-04-26T00:55:32.114Z,2.599999905
2023-04-26T00:56:33.042Z,2.299999952
2023-04-26T00:57:34.667Z,2.799999952
2023-04-26T00:58:36.225Z,2.599999905
2023-04-26T00:59:37.722Z,1.799999952
2023-04-26T01:00:39.662Z,2.299999952
2023-04-26T01:01:40.829Z,2.299999952
2023-04-26T01:02:42.306Z,2.400000095
2023-04-26T01:03:43.943Z,2.200000048
2023-04-26T01:04:45.159Z,2.799999952
2023-04-26T01:05:46.620Z,2.5
2023-04-26T01:06:48.209Z,2.200000048
2023-04-26T01:07:49.697Z,2.400000095
2023-04-26T01:08:51.412Z,2.299999952
2023-04-26T01:09:52.646Z,2.5
2023-04-26T01:10:54.115Z,2.299999952
2023-04-26T01:11:55.671Z,2.5
2023-04-26T01:12:57.214Z,2.200000048
2023-04-26T01:13:58.651Z,2.5
2023-04-26T01:15:00.195Z,2.099999905
2023-04-26T01:16:32.198Z,2.400000095
2023-04-26T01:17:33.760Z,2.400000095
2023-04-26T01:18:35.649Z,2.099999905
2023-04-26T01:19:37.098Z,2.099999905
2023-04-26T01:20:38.698Z,2.5
2023-04-26T01:21:40.133Z,2.5
2023-04-26T01:22:41.660Z,2.599999905
2023-04-26T01:23:43.229Z,2.5
2023-04-26T01:24:45.110Z,2.5
2023-04-26T01:25:47.140Z,2.599999905
2023-04-26T01:26:48.795Z,2.400000095
2023-04-26T01:27:50.172Z,2.099999905
2023-04-26T01:28:51.937Z,2.400000095
2023-04-26T01:29:53.202Z,2.700000048
2023-04-26T01:30:54.700Z,2.5
2023-04-26T01:31:56.139Z,2.599999905
2023-04-26T01:32:57.085Z,2.400000095
2023-04-26T01:33:58.668Z,2.5
2023-04-26T01:35:00.164Z,2.700000048
2023-04-26T01:36:32.063Z,2.5
2023-04-26T01:37:33.640Z,2.599999905
2023-04-26T01:38:35.154Z,2.700000048
2023-04-26T01:39:36.739Z,2.700000048
2023-04-26T01:40:38.044Z,2.400000095
2023-04-26T01:41:39.552Z,2.299999952
2023-04-26T01:42:41.190Z,2.400000095
2023-04-26T01:43:42.669Z,2.299999952
2023-04-26T01:44:43.987Z,2.299999952
2023-04-26T01:45:45.591Z,2.400000095
2023-04-26T01:46:47.198Z,2.599999905
2023-04-26T01:47:48.676Z,2.900000095
2023-04-26T01:48:50.531Z,2.599999905
2023-04-26T01:49:52.165Z,2.299999952
2023-04-26T01:50:53.678Z,2.299999952
2023-04-26T01:51:55.626Z,2.299999952
2023-04-26T01:52:57.214Z,2.700000048
2023-04-26T01:53:59.079Z,2.799999952
2023-04-26T01:55:31.634Z,2.299999952
2023-04-26T01:56:33.022Z,2.299999952
2023-04-26T01:57:34.512Z,2.599999905
2023-04-26T01:58:36.166Z,2.400000095
2023-04-26T01:59:37.667Z,2.200000048
2023-04-26T02:00:38.858Z,2.099999905
2023-04-26T02:01:41.028Z,2.599999905
2023-04-26T02:02:43.276Z,2.599999905
2023-04-26T02:03:45.161Z,2.099999905
2023-04-26T02:04:46.724Z,2.099999905
2023-04-26T02:05:48.250Z,2.5
2023-04-26T02:06:49.690Z,2.400000095
2023-04-26T02:07:51.130Z,2.400000095
2023-04-26T02:08:53.017Z,2.099999905
2023-04-26T02:09:54.661Z,2.400000095
2023-04-26T02:10:56.193Z,2.299999952
2023-04-26T02:11:58.345Z,2.299999952
2023-04-26T02:13:00.784Z,2.400000095
2023-04-26T02:14:33.255Z,2.200000048
2023-04-26T02:15:35.287Z,2.599999905
2023-04-26T02:16:37.204Z,2.200000048
2023-04-26T02:17:38.754Z,2.299999952
2023-04-26T02:18:39.578Z,2.5
2023-04-26T02:19:41.170Z,2.5
2023-04-26T02:20:43.016Z,2.599999905
2023-04-26T02:21:45.222Z,2.700000048
2023-04-26T02:22:47.303Z,2.099999905
2023-04-26T02:23:49.196Z,2
2023-04-26T02:24:51.236Z,2
2023-04-26T02:25:53.191Z,2.400000095
2023-04-26T02:26:55.254Z,2.5
2023-04-26T02:27:56.664Z,2.599999905
2023-04-26T02:28:58.128Z,2.299999952
2023-04-26T02:30:00.274Z,2.299999952
2023-04-26T02:31:32.705Z,2.400000095
2023-04-26T02:32:34.305Z,2.200000048
2023-04-26T02:33:36.147Z,2.099999905
2023-04-26T02:34:37.670Z,2.299999952
2023-04-26T02:35:38.693Z,2.799999952
2023-04-26T02:36:40.101Z,2
2023-04-26T02:37:41.602Z,2.299999952
2023-04-26T02:38:43.155Z,2.200000048
2023-04-26T02:39:45.672Z,2.299999952
2023-04-26T02:40:47.161Z,2.400000095
2023-04-26T02:41:48.647Z,2.5
2023-04-26T02:42:50.173Z,2.700000048
2023-04-26T02:43:51.656Z,2
2023-04-26T02:44:53.376Z,2
2023-04-26T02:45:55.141Z,2.299999952
2023-04-26T02:46:56.670Z,2.200000048
2023-04-26T02:47:58.259Z,2.099999905
2023-04-26T02:49:30.557Z,2.599999905
2023-04-26T02:50:32.298Z,2.5
2023-04-26T02:51:33.678Z,2.099999905
2023-04-26T02:52:35.151Z,2.400000095
2023-04-26T02:53:36.677Z,1.899999976
2023-04-26T02:54:38.193Z,2.900000095
2023-04-26T02:55:39.632Z,2
2023-04-26T02:56:41.595Z,2.099999905
2023-04-26T02:57:43.060Z,2.599999905
2023-04-26T02:58:44.629Z,2.200000048
2023-04-26T02:59:46.033Z,2.200000048
2023-04-26T03:00:47.723Z,2.599999905
2023-04-26T03:01:48.539Z,2.299999952
2023-04-26T03:02:50.213Z,2.099999905
2023-04-26T03:03:51.731Z,2.299999952
2023-04-26T03:04:53.660Z,2.099999905
2023-04-26T03:05:55.146Z,2.299999952
2023-04-26T03:06:56.041Z,2.799999952
2023-04-26T03:07:57.560Z,2.200000048
2023-04-26T03:09:30.710Z,2.700000048
2023-04-26T03:10:32.059Z,2.200000048
2023-04-26T03:11:33.525Z,2.200000048
2023-04-26T03:12:35.036Z,1.799999952
2023-04-26T03:13:36.583Z,2.099999905
2023-04-26T03:14:38.173Z,2.099999905
2023-04-26T03:15:39.719Z,2.200000048
2023-04-26T03:16:41.508Z,2.099999905
2023-04-26T03:17:43.216Z,2.5
2023-04-26T03:18:45.150Z,2.200000048
2023-04-26T03:19:46.648Z,2.400000095
2023-04-26T03:20:48.146Z,2.599999905
2023-04-26T03:21:49.631Z,2.5
2023-04-26T03:22:51.147Z,2.5
2023-04-26T03:23:52.122Z,2.5
2023-04-26T03:24:53.733Z,2.700000048
2023-04-26T03:25:55.108Z,3.200000048
2023-04-26T03:26:56.732Z,2.799999952
2023-04-26T03:27:58.160Z,2.599999905
2023-04-26T03:29:30.297Z,2.599999905
2023-04-26T03:30:32.090Z,2.400000095
2023-04-26T03:31:33.672Z,2.599999905
2023-04-26T03:32:35.219Z,2.5
2023-04-26T03:33:36.676Z,2.5
2023-04-26T03:34:38.800Z,3
2023-04-26T03:35:40.171Z,2.200000048
2023-04-26T03:36:41.703Z,2.5
2023-04-26T03:37:43.347Z,2.900000095
2023-04-26T03:38:45.633Z,3
2023-04-26T03:39:47.168Z,3.099999905
2023-04-26T03:40:48.696Z,3.099999905
2023-04-26T03:41:50.223Z,4.300000191
2023-04-26T03:42:51.653Z,3.900000095
2023-04-26T03:43:53.177Z,3.799999952
2023-04-26T03:44:54.762Z,3.799999952
2023-04-26T03:45:56.227Z,3.099999905
2023-04-26T03:46:57.819Z,3.5
2023-04-26T03:48:30.191Z,3.799999952
2023-04-26T03:49:31.682Z,3.599999905
2023-04-26T03:50:33.198Z,3.400000095
2023-04-26T03:51:34.629Z,3.799999952
2023-04-26T03:52:36.166Z,4.5
2023-04-26T03:53:38.209Z,3.900000095
2023-04-26T03:54:39.647Z,4.199999809
2023-04-26T03:55:41.698Z,3.599999905
2023-04-26T03:56:43.253Z,4
2023-04-26T03:57:45.108Z,3.900000095
2023-04-26T03:58:46.649Z,3.599999905
2023-04-26T03:59:48.134Z,3.5
2023-04-26T04:00:50.673Z,3.400000095
2023-04-26T04:01:52.301Z,3.5
2023-04-26T04:02:53.254Z,3.700000048
2023-04-26T04:03:54.868Z,4.199999809
2023-04-26T04:04:57.360Z,3.799999952
2023-04-26T04:06:29.688Z,3.900000095
2023-04-26T04:07:31.199Z,3.700000048
2023-04-26T04:08:33.076Z,3.599999905
2023-04-26T04:09:34.645Z,3.5
2023-04-26T04:10:36.680Z,3.400000095
2023-04-26T04:11:38.215Z,3.099999905
2023-04-26T04:12:40.128Z,3.599999905
2023-04-26T04:13:41.604Z,3.599999905
2023-04-26T04:14:43.186Z,3.5
2023-04-26T04:15:45.122Z,3.599999905
2023-04-26T04:16:46.657Z,3.5
2023-04-26T04:17:48.299Z,3.599999905
2023-04-26T04:18:50.760Z,3.299999952
2023-04-26T04:19:52.098Z,3.200000048
2023-04-26T04:20:53.689Z,3.700000048
2023-04-26T04:21:56.164Z,3.200000048
2023-04-26T04:22:57.753Z,3.700000048
2023-04-26T04:24:30.180Z,3.900000095
2023-04-26T04:25:31.650Z,4.300000191
2023-04-26T04:26:33.407Z,3.299999952
2023-04-26T04:27:35.213Z,3.299999952
2023-04-26T04:28:36.388Z,3.599999905
2023-04-26T04:29:37.343Z,3.799999952
2023-04-26T04:30:39.202Z,4.099999905
2023-04-26T04:31:40.353Z,3.400000095
2023-04-26T04:32:41.670Z,3.700000048
2023-04-26T04:33:43.158Z,3.599999905
2023-04-26T04:34:45.474Z,3.5
2023-04-26T04:35:46.676Z,4.099999905
2023-04-26T04:36:48.208Z,3.799999952
2023-04-26T04:37:49.720Z,3.799999952
2023-04-26T04:38:51.928Z,3.400000095
2023-04-26T04:39:53.180Z,3.400000095
2023-04-26T04:40:54.622Z,3.599999905
2023-04-26T04:41:56.674Z,3.200000048
2023-04-26T04:42:58.745Z,2.700000048
2023-04-26T04:44:31.158Z,3.099999905
2023-04-26T04:45:32.697Z,2.599999905
2023-04-26T04:46:34.774Z,2.900000095
2023-04-26T04:47:36.268Z,3
2023-04-26T04:48:38.148Z,2.400000095
2023-04-26T04:49:39.804Z,2.599999905
2023-04-26T04:50:41.625Z,2.299999952
2023-04-26T04:51:43.162Z,2.400000095
2023-04-26T04:52:44.611Z,2.200000048
2023-04-26T04:53:46.184Z,2.599999905
2023-04-26T04:54:47.730Z,2.5
2023-04-26T04:55:49.700Z,2.299999952
2023-04-26T04:56:51.652Z,2.599999905
2023-04-26T04:57:53.170Z,2.200000048
2023-04-26T04:58:54.794Z,2.599999905
2023-04-26T04:59:56.235Z,2.799999952
2023-04-26T05:00:57.109Z,2.400000095
2023-04-26T05:02:29.764Z,2.700000048
2023-04-26T05:03:31.389Z,2.700000048
2023-04-26T05:04:33.403Z,2.900000095
2023-04-26T05:05:34.978Z,3
2023-04-26T05:06:36.622Z,2.700000048
2023-04-26T05:07:38.292Z,3
2023-04-26T05:08:40.713Z,2.900000095
2023-04-26T05:09:42.590Z,3.299999952
2023-04-26T05:10:44.390Z,2.700000048
2023-04-26T05:11:46.176Z,2.5
2023-04-26T05:12:47.580Z,2.700000048
2023-04-26T05:13:51.573Z,2.599999905
2023-04-26T05:14:51.445Z,3.099999905
2023-04-26T05:15:53.212Z,2.5
2023-04-26T05:16:54.862Z,2.400000095
2023-04-26T05:17:56.250Z,2.400000095
2023-04-26T05:18:57.657Z,2.799999952
2023-04-26T05:20:29.732Z,2.799999952
2023-04-26T05:21:31.167Z,2.5
2023-04-26T05:22:32.776Z,2.400000095
2023-04-26T05:23:34.636Z,3.299999952
2023-04-26T05:24:36.178Z,2.099999905
2023-04-26T05:25:37.724Z,2.799999952
2023-04-26T05:26:39.238Z,2.700000048
2023-04-26T05:27:40.760Z,2.900000095
2023-04-26T05:28:42.863Z,3.099999905
2023-04-26T05:29:44.617Z,2.5
2023-04-26T05:30:47.197Z,3
2023-04-26T05:31:48.353Z,3.099999905
2023-04-26T05:32:50.293Z,3.700000048
2023-04-26T05:33:52.500Z,3.299999952
2023-04-26T05:34:54.170Z,3
2023-04-26T05:35:55.754Z,4.099999905
2023-04-26T05:36:57.760Z,3.5
2023-04-26T05:38:30.287Z,3.099999905
2023-04-26T05:39:32.095Z,3
2023-04-26T05:40:33.688Z,3.099999905
2023-04-26T05:41:35.222Z,2.900000095
2023-04-26T05:42:37.344Z,3.099999905
2023-04-26T05:43:39.249Z,2.900000095
2023-04-26T05:44:41.104Z,2.900000095
2023-04-26T05:45:42.702Z,3
2023-04-26T05:46:44.287Z,2.900000095
2023-04-26T05:47:46.380Z,3.299999952
2023-04-26T05:48:48.285Z,2.900000095
2023-04-26T05:49:51.648Z,2.799999952
2023-04-26T05:50:53.269Z,2.700000048
2023-04-26T05:51:55.258Z,2.799999952
2023-04-26T05:52:57.325Z,3.099999905
2023-04-26T05:54:29.688Z,3.299999952
2023-04-26T05:55:31.260Z,3.299999952
2023-04-26T05:56:32.177Z,3.299999952
2023-04-26T05:57:33.731Z,2.900000095
2023-04-26T05:58:35.807Z,3.099999905
2023-04-26T05:59:37.698Z,3
2023-04-26T06:00:39.131Z,3
2023-04-26T06:01:40.721Z,3
2023-04-26T06:02:43.024Z,3.099999905
2023-04-26T06:03:45.820Z,3
2023-04-26T06:04:47.445Z,3.200000048
2023-04-26T06:05:49.307Z,3.200000048
2023-04-26T06:06:50.664Z,3.299999952
2023-04-26T06:07:52.717Z,2.799999952
2023-04-26T06:08:54.294Z,3.099999905
2023-04-26T06:09:56.232Z,2.900000095
2023-04-26T06:11:28.685Z,2.900000095
2023-04-26T06:12:30.286Z,2.799999952
2023-04-26T06:13:32.413Z,3.099999905
2023-04-26T06:14:34.530Z,2.799999952
2023-04-26T06:15:36.151Z,3.400000095
2023-04-26T06:16:37.108Z,2.799999952
2023-04-26T06:17:39.251Z,2.599999905
2023-04-26T06:18:41.403Z,3.200000048
2023-04-26T06:19:43.996Z,2.700000048
2023-04-26T06:20:45.660Z,2.900000095
2023-04-26T06:21:47.384Z,3.5
2023-04-26T06:22:49.908Z,2.900000095
2023-04-26T06:23:51.990Z,3.799999952
2023-04-26T06:24:53.780Z,3.599999905
2023-04-26T06:25:55.738Z,3.299999952
2023-04-26T06:27:28.725Z,3.099999905
2023-04-26T06:28:31.007Z,3.099999905
2023-04-26T06:29:32.836Z,3.299999952
2023-04-26T06:30:34.919Z,3.5
2023-04-26T06:31:36.718Z,3.200000048
2023-04-26T06:32:38.448Z,3.599999905
2023-04-26T06:33:40.773Z,3.400000095
2023-04-26T06:34:42.775Z,3.099999905
2023-04-26T06:35:44.855Z,3.400000095
2023-04-26T06:36:46.891Z,2.900000095
2023-04-26T06:37:48.751Z,3.599999905
2023-04-26T06:38:51.700Z,3.299999952
2023-04-26T06:39:54.065Z,3.099999905
2023-04-26T06:40:56.154Z,3.099999905
2023-04-26T06:42:28.114Z,3.099999905
2023-04-26T06:43:29.705Z,2.5
2023-04-26T06:44:31.792Z,2.799999952
2023-04-26T06:45:33.741Z,2.700000048
2023-04-26T06:46:35.123Z,2.900000095
2023-04-26T06:47:36.639Z,3.099999905
2023-04-26T06:48:38.257Z,2.900000095
2023-04-26T06:49:40.244Z,2.700000048
2023-04-26T06:50:42.198Z,2.799999952
2023-04-26T06:51:43.961Z,2.799999952
2023-04-26T06:52:46.160Z,2.799999952
2023-04-26T06:53:47.820Z,2.900000095
2023-04-26T06:54:56.557Z,3.099999905
2023-04-26T06:55:51.204Z,2.900000095
2023-04-26T06:56:52.677Z,3
2023-04-26T06:57:54.152Z,3
2023-04-26T06:58:56.242Z,2.900000095
2023-04-26T07:00:28.795Z,2.700000048
2023-04-26T07:01:30.692Z,2.400000095
2023-04-26T07:02:32.329Z,3.099999905
2023-04-26T07:03:33.717Z,3
2023-04-26T07:04:35.450Z,2.599999905
2023-04-26T07:05:36.639Z,2.599999905
2023-04-26T07:06:38.178Z,2.799999952
2023-04-26T07:07:40.068Z,6.800000191
2023-04-26T07:08:41.626Z,5.099999905
2023-04-26T07:09:43.241Z,3.5
2023-04-26T07:10:45.159Z,2.299999952
2023-04-26T07:11:46.614Z,2.400000095
2023-04-26T07:12:47.365Z,2.299999952
2023-04-26T07:13:48.322Z,2.099999905
2023-04-26T07:14:49.690Z,2.299999952
2023-04-26T07:15:51.189Z,2.200000048
2023-04-26T07:16:52.650Z,2.299999952
2023-04-26T07:17:54.193Z,2.200000048
2023-04-26T07:18:55.703Z,2.299999952
2023-04-26T07:20:27.637Z,2.299999952
2023-04-26T07:21:28.507Z,2.299999952
2023-04-26T07:22:30.052Z,2.099999905
2023-04-26T07:23:31.723Z,2.5
2023-04-26T07:24:33.372Z,2.400000095
2023-04-26T07:25:35.526Z,2.5
2023-04-26T07:26:36.359Z,2.299999952
2023-04-26T07:27:37.253Z,2
2023-04-26T07:28:39.194Z,2.299999952
2023-04-26T07:29:40.671Z,1.899999976
2023-04-26T07:30:42.723Z,2.5
2023-04-26T07:31:44.645Z,2.5
2023-04-26T07:32:46.235Z,2.099999905
2023-04-26T07:33:47.839Z,2.400000095
2023-04-26T07:34:49.729Z,2
2023-04-26T07:35:51.722Z,2.400000095
2023-04-26T07:36:53.134Z,2.099999905
2023-04-26T07:37:54.648Z,2.200000048
2023-04-26T07:38:56.701Z,2.099999905
2023-04-26T07:40:29.255Z,1.899999976
2023-04-26T07:41:31.142Z,2.700000048
2023-04-26T07:42:32.784Z,2.200000048
2023-04-26T07:43:34.728Z,2.5
2023-04-26T07:44:36.218Z,2.799999952
2023-04-26T07:45:38.283Z,2.299999952
2023-04-26T07:46:40.203Z,2.5
2023-04-26T07:47:42.291Z,2.099999905
2023-04-26T07:48:44.225Z,2.200000048
2023-04-26T07:49:47.835Z,2.200000048
2023-04-26T07:50:47.784Z,2.099999905
2023-04-26T07:51:50.180Z,2.700000048
2023-04-26T07:52:51.722Z,2
2023-04-26T07:53:53.079Z,2.099999905
2023-04-26T07:54:54.943Z,2
2023-04-26T07:56:27.779Z,2.5
2023-04-26T07:57:29.635Z,2.299999952
2023-04-26T07:58:31.270Z,2.099999905
2023-04-26T07:59:33.288Z,2.099999905
2023-04-26T08:00:35.268Z,2.900000095
2023-04-26T08:01:37.320Z,1.899999976
2023-04-26T08:02:45.250Z,2.200000048
2023-04-26T08:03:40.921Z,1.899999976
2023-04-26T08:04:42.453Z,2.200000048
2023-04-26T08:05:44.501Z,1.899999976
2023-04-26T08:06:46.277Z,2.200000048
2023-04-26T08:07:48.877Z,2
2023-04-26T08:08:50.182Z,2
2023-04-26T08:09:51.831Z,2.099999905
2023-04-26T08:10:53.731Z,2.200000048
2023-04-26T08:11:55.153Z,2.400000095
2023-04-26T08:13:29.292Z,1.799999952
2023-04-26T08:14:28.748Z,1.899999976
2023-04-26T08:15:30.208Z,2.099999905
2023-04-26T08:16:31.812Z,2.299999952
2023-04-26T08:17:33.717Z,2.5
2023-04-26T08:18:35.262Z,2.099999905
2023-04-26T08:19:37.298Z,2
2023-04-26T08:20:39.216Z,1.799999952
2023-04-26T08:21:41.201Z,1.799999952
2023-04-26T08:22:42.647Z,2.299999952
2023-04-26T08:23:44.340Z,1.899999976
2023-04-26T08:24:46.235Z,2
2023-04-26T08:25:48.230Z,1.899999976
2023-04-26T08:26:49.295Z,1.799999952
2023-04-26T08:27:51.157Z,1.899999976
2023-04-26T08:28:52.695Z,2
2023-04-26T08:29:55.267Z,2.099999905
2023-04-26T08:31:27.759Z,2.099999905
2023-04-26T08:32:29.202Z,1.899999976
2023-04-26T08:33:30.583Z,2.099999905
2023-04-26T08:34:32.373Z,2
2023-04-26T08:35:34.248Z,2.299999952
2023-04-26T08:36:36.285Z,2.400000095
2023-04-26T08:37:38.252Z,2.099999905
2023-04-26T08:38:40.084Z,2.099999905
2023-04-26T08:39:41.708Z,2
2023-04-26T08:40:43.320Z,2.099999905
2023-04-26T08:41:45.717Z,2.099999905
2023-04-26T08:42:47.662Z,2.099999905
2023-04-26T08:43:49.143Z,2
2023-04-26T08:44:50.724Z,1.799999952
2023-04-26T08:45:52.748Z,1.700000048
2023-04-26T08:46:54.206Z,2.099999905
2023-04-26T08:48:26.646Z,1.700000048
2023-04-26T08:49:28.231Z,2.5
2023-04-26T08:50:30.492Z,2.099999905
2023-04-26T08:51:32.345Z,1.700000048
2023-04-26T08:52:34.209Z,2
2023-04-26T08:53:35.708Z,2.099999905
2023-04-26T08:54:37.180Z,1.899999976
2023-04-26T08:55:39.411Z,2.299999952
2023-04-26T08:56:41.251Z,1.799999952
2023-04-26T08:57:43.196Z,1.899999976
2023-04-26T08:58:45.183Z,2.200000048
2023-04-26T08:59:46.716Z,2
2023-04-26T09:00:48.247Z,1.600000024
2023-04-26T09:01:49.829Z,1.700000048
2023-04-26T09:02:51.946Z,2.799999952
2023-04-26T09:03:53.941Z,2.799999952
2023-04-26T09:04:56.314Z,2.400000095
2023-04-26T09:06:28.734Z,2.599999905
2023-04-26T09:07:30.187Z,1.899999976
2023-04-26T09:08:31.619Z,2.299999952
2023-04-26T09:09:33.106Z,2.299999952
2023-04-26T09:10:34.825Z,2.099999905
2023-04-26T09:11:36.733Z,2.200000048
2023-04-26T09:12:38.229Z,2.099999905
2023-04-26T09:13:39.615Z,2.099999905
2023-04-26T09:14:41.144Z,2
2023-04-26T09:15:42.810Z,1.899999976
2023-04-26T09:16:45.785Z,2
2023-04-26T09:17:47.274Z,1.899999976
2023-04-26T09:18:49.252Z,1.700000048
2023-04-26T09:19:50.634Z,2.099999905
2023-04-26T09:20:52.257Z,2.299999952
2023-04-26T09:21:53.325Z,2.299999952
2023-04-26T09:23:27.158Z,1.899999976
2023-04-26T09:24:28.579Z,2.200000048
2023-04-26T09:25:30.161Z,1.899999976
2023-04-26T09:26:31.716Z,1.799999952
2023-04-26T09:27:33.716Z,1.799999952
2023-04-26T09:28:35.610Z,2.099999905
2023-04-26T09:29:37.171Z,1.899999976
2023-04-26T09:30:38.835Z,2.299999952
2023-04-26T09:31:40.953Z,1.600000024
2023-04-26T09:32:42.753Z,2.700000048
2023-04-26T09:33:44.692Z,2.599999905
2023-04-26T09:34:46.198Z,2.400000095
2023-04-26T09:35:47.713Z,2.099999905
2023-04-26T09:36:49.711Z,2.400000095
2023-04-26T09:37:58.296Z,2.099999905
2023-04-26T09:38:52.912Z,1.5
2023-04-26T09:39:54.162Z,3.400000095
2023-04-26T09:41:26.202Z,2.200000048
2023-04-26T09:42:27.716Z,1.899999976
2023-04-26T09:43:29.286Z,2
2023-04-26T09:44:30.534Z,1.700000048
2023-04-26T09:45:32.273Z,1.5
2023-04-26T09:46:34.272Z,1.700000048
2023-04-26T09:47:36.214Z,2.099999905
2023-04-26T09:48:37.758Z,2.599999905
2023-04-26T09:49:39.635Z,1.799999952
2023-04-26T09:50:41.121Z,1.899999976
2023-04-26T09:51:42.799Z,2.599999905
2023-04-26T09:52:44.751Z,1.799999952
2023-04-26T09:53:47.710Z,1.700000048
2023-04-26T09:54:49.155Z,1.399999976
2023-04-26T09:55:50.801Z,1.700000048
2023-04-26T09:56:52.710Z,1.700000048
2023-04-26T09:57:54.708Z,2.299999952
2023-04-26T09:59:27.186Z,1.5
2023-04-26T10:00:28.611Z,1.799999952
2023-04-26T10:01:30.656Z,1.700000048
2023-04-26T10:02:32.321Z,2.299999952
2023-04-26T10:03:34.348Z,2.200000048
2023-04-26T10:04:36.002Z,2.099999905
2023-04-26T10:05:37.641Z,1.600000024
2023-04-26T10:06:39.340Z,1.899999976
2023-04-26T10:07:41.213Z,2.900000095
2023-04-26T10:08:43.453Z,1.600000024
2023-04-26T10:09:45.679Z,1.799999952
2023-04-26T10:10:46.678Z,1.399999976
2023-04-26T10:11:47.659Z,1.700000048
2023-04-26T10:12:49.305Z,1.200000048
2023-04-26T10:13:51.200Z,1.600000024
2023-04-26T10:14:53.220Z,1.700000048
2023-04-26T10:15:55.158Z,1.600000024
2023-04-26T10:17:27.272Z,1.899999976
2023-04-26T10:18:29.384Z,2.099999905
2023-04-26T10:19:31.126Z,2.799999952
2023-04-26T10:20:32.641Z,1.399999976
2023-04-26T10:21:34.131Z,2
2023-04-26T10:22:35.684Z,1.5
2023-04-26T10:23:37.166Z,2.099999905
2023-04-26T10:24:38.703Z,1.399999976
2023-04-26T10:25:40.619Z,1.700000048
2023-04-26T10:26:42.143Z,1.5
2023-04-26T10:27:43.957Z,2
2023-04-26T10:28:45.705Z,1.5
2023-04-26T10:29:47.010Z,1.600000024
2023-04-26T10:30:48.541Z,2.5
2023-04-26T10:31:50.170Z,1.600000024
2023-04-26T10:32:51.684Z,1.5
2023-04-26T10:33:53.190Z,1.700000048
2023-04-26T10:35:25.621Z,2.099999905
2023-04-26T10:36:27.119Z,3
2023-04-26T10:37:28.688Z,2
2023-04-26T10:38:30.179Z,1.899999976
2023-04-26T10:39:31.705Z,2.099999905
2023-04-26T10:40:33.167Z,2.900000095
2023-04-26T10:41:34.124Z,2.099999905
2023-04-26T10:42:35.646Z,1.600000024
2023-04-26T10:43:37.134Z,1.700000048
2023-04-26T10:44:38.938Z,1.600000024
2023-04-26T10:45:40.799Z,2
2023-04-26T10:46:42.326Z,1.799999952
2023-04-26T10:47:44.348Z,1.899999976
2023-04-26T10:48:47.219Z,5.400000095
2023-04-26T10:49:49.307Z,2.400000095
2023-04-26T10:50:51.161Z,2.5
2023-04-26T10:51:52.884Z,1.399999976
2023-04-26T10:52:55.284Z,1.899999976
2023-04-26T10:54:27.185Z,1.799999952
2023-04-26T10:55:28.650Z,1.700000048
2023-04-26T10:56:30.173Z,1.600000024
2023-04-26T10:57:31.821Z,1.299999952
2023-04-26T10:58:33.790Z,1.200000048
2023-04-26T10:59:47.246Z,1.600000024
2023-04-26T11:00:37.676Z,1.5
2023-04-26T11:01:39.462Z,1.799999952
2023-04-26T11:02:41.489Z,1.399999976
2023-04-26T11:03:43.358Z,1.899999976
2023-04-26T11:04:45.341Z,1.5
2023-04-26T11:05:46.661Z,1.399999976
2023-04-26T11:06:48.242Z,1.799999952
2023-04-26T11:07:50.209Z,1.899999976
2023-04-26T11:08:52.465Z,1.5
2023-04-26T11:09:53.730Z,2.099999905
2023-04-26T11:11:25.592Z,1.899999976
2023-04-26T11:12:27.268Z,2
2023-04-26T11:13:29.216Z,2.099999905
2023-04-26T11:14:30.758Z,2
2023-04-26T11:15:32.174Z,1.899999976
2023-04-26T11:16:33.656Z,1.899999976
2023-04-26T11:17:35.187Z,2.200000048
2023-04-26T11:18:36.769Z,2
2023-04-26T11:19:38.747Z,1.799999952
2023-04-26T11:20:40.714Z,2
2023-04-26T11:21:42.130Z,1.299999952
2023-04-26T11:22:44.037Z,2.099999905
2023-04-26T11:23:45.861Z,1.799999952
2023-04-26T11:24:47.697Z,1.799999952
2023-04-26T11:25:49.148Z,1.299999952
2023-04-26T11:26:50.613Z,1.600000024
2023-04-26T11:27:52.159Z,1.5
2023-04-26T11:28:54.558Z,1.600000024
2023-04-26T11:30:26.702Z,1.399999976
2023-04-26T11:31:28.240Z,1.700000048
2023-04-26T11:32:29.803Z,1.600000024
2023-04-26T11:33:32.767Z,1.399999976
2023-04-26T11:34:34.702Z,1.600000024
2023-04-26T11:35:36.784Z,1.299999952
2023-04-26T11:36:38.128Z,1.600000024
2023-04-26T11:37:39.804Z,1.700000048
2023-04-26T11:38:41.746Z,1.100000024
2023-04-26T11:39:42.745Z,1.299999952
2023-04-26T11:40:45.254Z,1.5
2023-04-26T11:41:46.192Z,1.299999952
2023-04-26T11:42:47.204Z,1
2023-04-26T11:43:48.945Z,1.299999952
2023-04-26T11:44:50.702Z,1.100000024
2023-04-26T11:45:52.196Z,1.200000048
2023-04-26T11:46:53.792Z,1.299999952
2023-04-26T11:48:25.724Z,1.299999952
2023-04-26T11:49:27.274Z,1.399999976
2023-04-26T11:50:29.134Z,1.200000048
2023-04-26T11:51:31.820Z,1.600000024
2023-04-26T11:52:32.147Z,1.600000024
2023-04-26T11:53:33.929Z,1.299999952
2023-04-26T11:54:35.693Z,1.600000024
2023-04-26T11:55:37.286Z,1.100000024
2023-04-26T11:56:39.291Z,1.399999976